Terminal Aerodrome Forecast
Issued by NWS

Home | Current Version | Previous Version | Text Only | Print | Product List | Glossary Off
Versions: 1 2 3 4 5 6 7 8 9 10 11 12 13 14 15 16 17 18 19 20 21 22 23 24 25 26 27

000
FTUS43 KICT 240120 AAA
TAFHUT
TAF AMD
KHUT 240120Z 2401/2424 17018G26KT P6SM VCTS SCT050CB
     FM240300 17014KT P6SM SCT050
     FM240500 18013KT P6SM SCT050 WS020/22045KT
     FM241200 19013KT P6SM VCSH BKN080
     FM241500 20015G22KT P6SM VCSH BKN080
     FM241800 20016G23KT P6SM SCT060
     FM242300 20015KT P6SM VCTS BKN060CB=

USA.gov is the U.S. government's official web portal to all federal, state and local government web resources and services.